Time;durP1;ratioP1;P1;durP2;ratioP2;P2;SDS_P1;SDS_P2;PMS_P1;PMS_P2;Temp;Humidity;BMP_temperature;BMP_pressure;BME280_temperature;BME280_humidity;BME280_pressure;Samples;Min_cycle;Max_cycle;Signal;HPM_P1;HPM_P2
2023/08/22 00:02:19;;;;;;;185.18;167.98;;;26.30;99.90;;;;;;5096122;28;20028;-66
2023/08/22 00:04:45;;;;;;;194.85;176.40;;;26.30;99.90;;;;;;5096147;28;20020;-67
2023/08/22 00:07:12;;;;;;;322.25;287.35;;;26.40;99.90;;;;;;5096029;28;20023;-68
2023/08/22 00:09:39;;;;;;;178.00;160.25;;;26.40;99.90;;;;;;5077926;28;20384;-68
2023/08/22 00:12:05;;;;;;;141.77;125.15;;;26.50;99.90;;;;;;5095975;28;20022;-69
2023/08/22 00:14:32;;;;;;;145.80;123.20;;;26.50;99.90;;;;;;5095820;28;20016;-71
2023/08/22 00:16:59;;;;;;;170.45;152.70;;;26.60;99.90;;;;;;5096063;28;20020;-67
2023/08/22 00:19:25;;;;;;;181.52;164.07;;;26.60;99.90;;;;;;5095763;28;20077;-69
2023/08/22 00:21:52;;;;;;;231.93;209.27;;;26.70;99.90;;;;;;5095574;28;20032;-69
2023/08/22 00:24:19;;;;;;;250.32;227.15;;;26.70;99.90;;;;;;5095652;28;20028;-71
2023/08/22 00:26:45;;;;;;;243.32;220.02;;;26.80;99.90;;;;;;5095260;28;20063;-67
2023/08/22 00:29:12;;;;;;;199.40;180.43;;;26.90;99.90;;;;;;5095276;28;20028;-68
2023/08/22 00:31:38;;;;;;;270.98;246.48;;;26.90;99.90;;;;;;5095518;28;20389;-67
2023/08/22 00:34:05;;;;;;;248.55;224.82;;;26.90;99.90;;;;;;5095180;28;20069;-68
2023/08/22 00:36:31;;;;;;;281.88;255.57;;;26.90;99.90;;;;;;5095064;28;20020;-68
2023/08/22 00:38:58;;;;;;;246.13;223.80;;;26.90;99.90;;;;;;5077093;28;20024;-66
2023/08/22 00:41:25;;;;;;;291.20;263.60;;;27.00;99.90;;;;;;5095376;28;20027;-68
2023/08/22 00:43:51;;;;;;;284.08;258.08;;;27.00;99.90;;;;;;5095155;28;20035;-69
2023/08/22 00:46:20;;;;;;;304.92;276.17;;;27.00;99.90;;;;;;5095361;28;20027;-69
2023/08/22 00:48:47;;;;;;;310.02;279.88;;;27.10;99.90;;;;;;5089378;28;20032;-69
2023/08/22 00:51:16;;;;;;;287.55;260.60;;;27.10;99.90;;;;;;5086095;28;20362;-69
2023/08/22 00:53:44;;;;;;;314.55;284.67;;;27.20;99.90;;;;;;5088908;28;20028;-70
2023/08/22 00:56:11;;;;;;;313.20;283.50;;;27.30;99.90;;;;;;5094839;28;20095;-69
2023/08/22 00:58:39;;;;;;;312.33;282.60;;;27.40;99.90;;;;;;5094724;28;20028;-67
2023/08/22 01:01:05;;;;;;;297.85;270.50;;;27.50;99.90;;;;;;5094871;28;20044;-66
2023/08/22 01:03:32;;;;;;;251.98;228.80;;;27.50;99.90;;;;;;5094884;28;20423;-69
2023/08/22 01:06:16;;;;;;;235.40;214.00;;;27.60;99.90;;;;;;5092344;28;20039;-68
2023/08/22 01:08:48;;;;;;;244.23;220.82;;;27.60;99.90;;;;;;5094866;28;20032;-69
2023/08/22 01:11:29;;;;;;;227.85;207.20;;;27.70;99.90;;;;;;5094579;28;20074;-69
2023/08/22 01:13:56;;;;;;;239.82;218.38;;;27.80;99.90;;;;;;5094998;28;20055;-68
2023/08/22 01:16:24;;;;;;;254.82;231.73;;;27.90;99.90;;;;;;5095037;28;20016;-67
2023/08/22 01:18:51;;;;;;;229.13;208.85;;;27.90;99.90;;;;;;5094649;28;20027;-68
2023/08/22 01:21:20;;;;;;;239.05;217.93;;;27.90;99.90;;;;;;5094580;28;20031;-68
2023/08/22 01:23:47;;;;;;;263.35;238.95;;;27.90;99.90;;;;;;5094847;28;20050;-67
2023/08/22 01:26:14;;;;;;;243.27;221.38;;;27.90;99.90;;;;;;5094399;28;20096;-68
2023/08/22 01:28:52;;;;;;;247.98;225.60;;;28.00;99.90;;;;;;5094617;28;20031;-67
2023/08/22 01:31:22;;;;;;;253.85;230.90;;;28.00;99.90;;;;;;5094276;28;20031;-66
2023/08/22 01:34:05;;;;;;;246.13;223.57;;;28.10;99.90;;;;;;5093532;28;20031;-69
2023/08/22 01:36:33;;;;;;;263.95;240.18;;;28.20;99.90;;;;;;5093987;28;20054;-67
2023/08/22 01:39:05;;;;;;;268.08;243.50;;;28.20;99.90;;;;;;5093494;28;20024;-67
2023/08/22 01:41:32;;;;;;;213.50;194.40;;;28.30;99.90;;;;;;5093990;28;20052;-64
2023/08/22 01:43:59;;;;;;;241.43;219.27;;;28.40;99.90;;;;;;5082693;28;20477;-65
2023/08/22 01:46:25;;;;;;;260.00;236.02;;;28.50;99.90;;;;;;5073797;28;20060;-66
2023/08/22 01:48:52;;;;;;;239.93;218.52;;;28.50;99.90;;;;;;5084378;28;20107;-66
2023/08/22 01:51:19;;;;;;;220.07;200.70;;;28.60;99.90;;;;;;5093826;28;20049;-67
2023/08/22 01:53:45;;;;;;;301.58;270.15;;;28.70;99.90;;;;;;5093953;28;20034;-64
2023/08/22 01:56:12;;;;;;;217.70;197.27;;;28.70;99.90;;;;;;5094015;28;20031;-65
2023/08/22 01:58:38;;;;;;;229.10;206.10;;;28.70;99.90;;;;;;5093704;28;20016;-65
2023/08/22 02:01:10;;;;;;;206.55;188.48;;;28.70;99.90;;;;;;5093877;28;20048;-67
2023/08/22 02:03:36;;;;;;;229.20;208.60;;;28.80;99.90;;;;;;5093519;28;20028;-65
2023/08/22 02:06:03;;;;;;;210.93;192.02;;;28.90;99.90;;;;;;5085061;28;20123;-63
2023/08/22 02:08:29;;;;;;;214.13;194.75;;;29.00;99.90;;;;;;5073856;28;20027;-63
2023/08/22 02:10:56;;;;;;;216.45;197.38;;;29.10;99.90;;;;;;5073522;28;20078;-63
2023/08/22 02:13:23;;;;;;;182.00;166.50;;;29.10;99.90;;;;;;5073293;28;20029;-65
2023/08/22 02:15:49;;;;;;;176.40;161.15;;;29.10;99.90;;;;;;5088429;28;20016;-64
2023/08/22 02:18:16;;;;;;;226.88;207.10;;;29.00;99.90;;;;;;5092572;28;20109;-65
2023/08/22 02:20:43;;;;;;;230.55;210.07;;;29.10;99.90;;;;;;5085577;28;20465;-65
2023/08/22 02:23:10;;;;;;;211.77;192.98;;;29.10;99.90;;;;;;5073372;28;20060;-64
2023/08/22 02:25:36;;;;;;;217.60;198.65;;;29.20;99.90;;;;;;5073273;28;20434;-65
2023/08/22 02:28:03;;;;;;;162.45;148.50;;;29.20;99.90;;;;;;5073427;28;20024;-69
2023/08/22 02:30:30;;;;;;;92.72;84.57;;;29.30;99.90;;;;;;5073364;28;20051;-66
2023/08/22 02:32:56;;;;;;;85.70;77.38;;;29.40;99.90;;;;;;5073355;28;20021;-65
2023/08/22 02:35:23;;;;;;;69.00;62.00;;;29.60;99.90;;;;;;5073285;28;20047;-65
2023/08/22 02:37:51;;;;;;;91.25;82.57;;;29.60;99.90;;;;;;5072882;28;20044;-66
2023/08/22 02:40:17;;;;;;;62.63;56.67;;;29.60;99.90;;;;;;5073038;28;20115;-65
2023/08/22 02:42:44;;;;;;;55.10;49.50;;;29.70;99.90;;;;;;5073067;28;20027;-65
2023/08/22 02:45:11;;;;;;;81.70;73.97;;;29.70;99.90;;;;;;5073043;28;20028;-65
2023/08/22 02:47:37;;;;;;;80.13;72.10;;;29.70;99.90;;;;;;5073274;28;20032;-64
2023/08/22 02:50:05;;;;;;;160.50;146.48;;;29.80;99.90;;;;;;5074667;28;20591;-63
2023/08/22 02:52:32;;;;;;;178.98;163.90;;;29.80;99.90;;;;;;5077276;28;20044;-63
2023/08/22 02:54:59;;;;;;;166.77;152.45;;;29.90;99.90;;;;;;5077293;28;20028;-63
2023/08/22 02:57:25;;;;;;;147.73;135.52;;;29.90;99.90;;;;;;5077225;28;20047;-64
2023/08/22 02:59:52;;;;;;;131.30;120.22;;;29.90;99.90;;;;;;5077023;28;20483;-64
2023/08/22 03:02:18;;;;;;;165.52;151.32;;;29.90;99.90;;;;;;5077198;28;20021;-64
2023/08/22 03:04:45;;;;;;;157.45;144.00;;;30.00;99.90;;;;;;5077052;28;20066;-65
2023/08/22 03:07:11;;;;;;;182.40;166.32;;;30.10;99.90;;;;;;5076875;28;20035;-65
2023/08/22 03:09:40;;;;;;;174.48;159.48;;;30.20;99.90;;;;;;5077980;28;20025;-65
2023/08/22 03:12:06;;;;;;;182.38;166.75;;;30.20;99.90;;;;;;5094926;28;20492;-65
2023/08/22 03:14:33;;;;;;;157.70;144.57;;;30.30;99.90;;;;;;5096903;28;20499;-64
2023/08/22 03:16:59;;;;;;;199.70;182.18;;;30.20;99.90;;;;;;5097169;28;20065;-64
2023/08/22 03:19:26;;;;;;;187.27;170.80;;;30.30;99.90;;;;;;5096967;28;20104;-64
2023/08/22 03:21:52;;;;;;;208.48;190.32;;;30.40;99.90;;;;;;5096819;28;20024;-63
2023/08/22 03:24:19;;;;;;;169.45;154.82;;;30.50;99.90;;;;;;5087990;28;20157;-64
2023/08/22 03:26:45;;;;;;;191.02;174.80;;;30.70;99.90;;;;;;5084725;28;20028;-64
2023/08/22 03:29:12;;;;;;;222.30;202.55;;;30.70;99.90;;;;;;5096597;28;20394;-64
2023/08/22 03:31:38;;;;;;;192.55;175.60;;;30.80;99.90;;;;;;5096674;28;20093;-65
2023/08/22 03:34:05;;;;;;;221.05;202.07;;;30.80;99.90;;;;;;5096734;28;20024;-66
2023/08/22 03:36:32;;;;;;;228.95;208.93;;;30.80;99.90;;;;;;5096285;28;20028;-66
2023/08/22 03:38:58;;;;;;;221.52;202.45;;;30.90;99.90;;;;;;5096541;28;20024;-64
2023/08/22 03:41:25;;;;;;;205.27;187.48;;;31.00;99.90;;;;;;5096738;28;20020;-65
2023/08/22 03:43:51;;;;;;;241.90;220.60;;;31.00;99.90;;;;;;5096272;28;20028;-64
2023/08/22 03:46:18;;;;;;;168.65;153.98;;;31.10;99.90;;;;;;5096431;28;20039;-65
2023/08/22 03:48:44;;;;;;;200.77;183.05;;;31.20;99.90;;;;;;5096510;28;20035;-64
2023/08/22 03:51:11;;;;;;;222.07;202.88;;;31.20;99.90;;;;;;5096695;28;20020;-64
2023/08/22 03:53:37;;;;;;;199.30;182.13;;;31.20;99.90;;;;;;5096329;28;20035;-64
2023/08/22 03:56:05;;;;;;;130.57;119.03;;;31.20;99.90;;;;;;5086975;28;20035;-64
2023/08/22 03:58:31;;;;;;;152.38;137.82;;;31.30;99.90;;;;;;5084499;28;20032;-65
2023/08/22 04:01:03;;;;;;;118.13;108.25;;;31.40;99.90;;;;;;5085734;28;20537;-67
2023/08/22 04:03:31;;;;;;;188.20;170.77;;;31.40;99.90;;;;;;5086014;28;20020;-64
2023/08/22 04:05:59;;;;;;;181.15;165.23;;;31.50;99.90;;;;;;5084136;28;20027;-64
2023/08/22 04:08:26;;;;;;;201.43;182.77;;;31.60;99.90;;;;;;5085338;28;20025;-65
2023/08/22 04:10:53;;;;;;;194.10;176.90;;;31.70;99.90;;;;;;5083399;28;20055;-64
2023/08/22 04:13:20;;;;;;;223.55;203.60;;;31.70;99.90;;;;;;5083666;28;20040;-65
2023/08/22 04:15:46;;;;;;;179.52;163.73;;;31.70;99.90;;;;;;5086175;28;20016;-64
2023/08/22 04:18:13;;;;;;;195.68;179.05;;;31.70;99.90;;;;;;5085791;28;20017;-63
2023/08/22 04:20:42;;;;;;;144.07;131.98;;;31.80;99.90;;;;;;5085632;28;20028;-67
2023/08/22 04:23:10;;;;;;;151.48;138.82;;;31.80;99.90;;;;;;5086184;28;20051;-65
2023/08/22 04:25:37;;;;;;;221.43;202.02;;;31.80;99.90;;;;;;5089857;28;20048;-65
2023/08/22 04:28:04;;;;;;;285.05;259.17;;;31.90;99.90;;;;;;5086919;28;20031;-67
2023/08/22 04:30:31;;;;;;;290.23;263.52;;;31.90;99.90;;;;;;5085042;28;20098;-66
2023/08/22 04:32:58;;;;;;;297.35;269.08;;;32.00;99.90;;;;;;5085784;28;20024;-68
2023/08/22 04:35:24;;;;;;;308.75;280.02;;;32.00;99.90;;;;;;5085000;28;20016;-66
2023/08/22 04:37:51;;;;;;;379.40;342.08;;;32.10;99.90;;;;;;5089626;28;20472;-66
2023/08/22 04:40:17;;;;;;;375.10;337.67;;;32.20;99.90;;;;;;5085819;28;20024;-66
2023/08/22 04:42:44;;;;;;;462.30;415.70;;;32.30;99.90;;;;;;5085396;28;20028;-67
2023/08/22 04:45:11;;;;;;;701.40;626.53;;;32.30;99.90;;;;;;5084503;28;20048;-68
2023/08/22 04:47:37;;;;;;;870.85;788.03;;;32.40;99.90;;;;;;5083819;28;20111;-66
2023/08/22 04:50:06;;;;;;;609.47;550.08;;;32.40;99.90;;;;;;5085711;28;20024;-65
2023/08/22 04:52:32;;;;;;;577.80;521.00;;;32.40;99.90;;;;;;5084561;28;20016;-66
2023/08/22 04:54:59;;;;;;;628.03;567.42;;;32.40;99.90;;;;;;5083548;28;20020;-65
2023/08/22 04:57:25;;;;;;;559.50;504.02;;;32.40;99.90;;;;;;5083582;28;20016;-65
2023/08/22 04:59:54;;;;;;;552.55;497.60;;;32.50;99.90;;;;;;5084523;28;20020;-66
2023/08/22 05:02:23;;;;;;;545.10;491.15;;;32.60;99.90;;;;;;5084964;28;20480;-66
2023/08/22 05:04:50;;;;;;;562.10;506.55;;;32.60;99.90;;;;;;5083978;28;20035;-66
2023/08/22 05:07:16;;;;;;;424.45;381.15;;;32.60;99.90;;;;;;5083629;28;20356;-66
2023/08/22 05:09:43;;;;;;;405.08;364.77;;;32.60;99.90;;;;;;5085436;28;20078;-66
2023/08/22 05:12:09;;;;;;;393.77;354.48;;;32.60;99.90;;;;;;5087283;28;20024;-67
2023/08/22 05:14:36;;;;;;;425.05;381.63;;;32.70;99.90;;;;;;5085263;28;20027;-68
2023/08/22 05:17:03;;;;;;;431.95;387.90;;;32.80;99.90;;;;;;5085162;28;20095;-66
2023/08/22 05:19:29;;;;;;;383.42;345.83;;;32.80;99.90;;;;;;5083772;28;20020;-66
2023/08/22 05:21:56;;;;;;;374.73;337.92;;;32.80;99.90;;;;;;5086549;28;20036;-66
2023/08/22 05:24:23;;;;;;;376.52;339.15;;;32.90;99.90;;;;;;5087641;28;20094;-66
2023/08/22 05:26:49;;;;;;;404.00;363.30;;;33.00;99.90;;;;;;5083454;28;20032;-64
2023/08/22 05:29:19;;;;;;;246.63;224.23;;;33.00;99.90;;;;;;5083333;28;20396;-65
2023/08/22 05:31:45;;;;;;;227.98;207.57;;;32.90;99.90;;;;;;5082765;28;20025;-66
2023/08/22 05:34:12;;;;;;;229.38;208.95;;;32.80;99.90;;;;;;5082466;28;20036;-65
2023/08/22 05:36:38;;;;;;;277.27;251.75;;;32.80;99.90;;;;;;5074220;28;20051;-66
2023/08/22 05:39:06;;;;;;;877.00;787.42;;;32.80;99.90;;;;;;5076131;28;20020;-69
2023/08/22 05:41:33;;;;;;;328.13;296.98;;;32.90;99.90;;;;;;5084298;28;20024;-66
2023/08/22 05:43:59;;;;;;;310.92;281.27;;;33.00;99.90;;;;;;5090200;28;20093;-66
2023/08/22 05:46:26;;;;;;;277.15;252.07;;;33.00;99.90;;;;;;5095612;28;20020;-65
2023/08/22 05:48:52;;;;;;;267.00;242.85;;;33.10;99.90;;;;;;5080061;28;20028;-65
2023/08/22 05:51:19;;;;;;;237.80;216.57;;;33.10;99.90;;;;;;5074244;28;20107;-66
2023/08/22 05:53:46;;;;;;;200.93;183.88;;;33.10;99.90;;;;;;5074282;28;20480;-66
2023/08/22 05:56:12;;;;;;;205.73;187.98;;;33.20;99.90;;;;;;5074101;28;20036;-66
2023/08/22 05:58:39;;;;;;;213.02;194.60;;;33.30;99.90;;;;;;5082543;28;20012;-66
2023/08/22 06:01:09;;;;;;;162.27;148.82;;;33.40;99.90;;;;;;5094514;28;20024;-67
2023/08/22 06:03:37;;;;;;;183.48;167.73;;;33.60;99.90;;;;;;5094879;28;20063;-67
2023/08/22 06:06:04;;;;;;;168.05;154.27;;;33.60;99.60;;;;;;5093995;28;20081;-66
2023/08/22 06:08:31;;;;;;;209.95;191.75;;;33.60;99.30;;;;;;5093313;28;20028;-67
2023/08/22 06:10:57;;;;;;;228.23;208.02;;;33.50;99.90;;;;;;5094162;28;20020;-68
2023/08/22 06:13:24;;;;;;;241.65;220.38;;;33.50;98.90;;;;;;5093336;28;20036;-66
2023/08/22 06:15:50;;;;;;;307.65;279.20;;;33.30;98.80;;;;;;5093528;28;20012;-70
2023/08/22 06:18:17;;;;;;;1090.47;978.28;;;33.30;98.40;;;;;;5093499;28;20381;-69
2023/08/22 06:20:44;;;;;;;487.48;437.48;;;33.40;97.90;;;;;;5086866;28;20024;-70
2023/08/22 06:23:10;;;;;;;438.98;394.25;;;33.50;98.80;;;;;;5079475;28;20027;-69
2023/08/22 06:25:37;;;;;;;349.98;315.40;;;33.40;98.10;;;;;;5076188;28;20074;-67
2023/08/22 06:28:04;;;;;;;359.70;324.42;;;33.30;97.90;;;;;;5072987;28;20024;-69
2023/08/22 06:30:31;;;;;;;353.05;318.77;;;33.20;98.60;;;;;;5075696;28;20385;-66
2023/08/22 06:32:58;;;;;;;351.13;316.77;;;33.20;98.20;;;;;;5086907;28;20051;-65
2023/08/22 06:35:28;;;;;;;305.60;276.40;;;33.10;98.90;;;;;;5079358;28;20045;-66
2023/08/22 06:37:55;;;;;;;228.65;208.30;;;33.10;99.00;;;;;;5072500;28;20060;-66
2023/08/22 06:40:22;;;;;;;276.98;251.77;;;33.30;98.60;;;;;;5073252;28;20048;-66
2023/08/22 06:42:49;;;;;;;308.17;279.25;;;33.40;98.00;;;;;;5073307;28;20032;-66
2023/08/22 06:45:16;;;;;;;375.95;338.58;;;33.40;97.60;;;;;;5073336;28;20108;-65
2023/08/22 06:47:42;;;;;;;351.30;317.35;;;33.50;97.00;;;;;;5073279;28;20054;-65
2023/08/22 06:50:09;;;;;;;385.65;347.20;;;33.60;97.20;;;;;;5080424;28;20047;-65
2023/08/22 06:52:36;;;;;;;381.48;343.40;;;33.60;97.10;;;;;;5093284;28;20032;-66
2023/08/22 06:55:02;;;;;;;387.25;349.10;;;33.60;97.30;;;;;;5093473;28;20392;-66
2023/08/22 06:57:29;;;;;;;398.63;358.58;;;33.50;97.80;;;;;;5093279;28;20115;-68
2023/08/22 06:59:56;;;;;;;443.83;398.15;;;33.40;97.40;;;;;;5093505;28;20533;-66
2023/08/22 07:02:22;;;;;;;378.88;340.60;;;33.30;97.90;;;;;;5093423;28;20020;-67
2023/08/22 07:04:49;;;;;;;400.13;359.42;;;33.20;97.50;;;;;;5093393;28;20110;-67
2023/08/22 07:07:15;;;;;;;1465.18;999.90;;;33.30;97.90;;;;;;5093009;28;20077;-67
2023/08/22 07:09:42;;;;;;;1381.97;999.90;;;33.40;97.50;;;;;;5092996;28;20107;-65
2023/08/22 07:12:08;;;;;;;1412.32;999.90;;;33.60;97.20;;;;;;5093201;28;20020;-69
2023/08/22 07:14:36;;;;;;;1265.80;999.90;;;33.60;96.60;;;;;;5092775;28;20024;-69
2023/08/22 07:17:03;;;;;;;827.20;747.80;;;33.70;96.20;;;;;;5092931;28;20102;-68
2023/08/22 07:19:29;;;;;;;747.28;675.70;;;33.70;96.80;;;;;;5093150;28;20050;-69
2023/08/22 07:21:58;;;;;;;750.10;678.55;;;33.80;96.40;;;;;;5091089;28;20012;-66
2023/08/22 07:24:24;;;;;;;769.72;696.42;;;33.90;96.20;;;;;;5082089;28;20082;-65
2023/08/22 07:26:51;;;;;;;665.53;601.22;;;34.00;96.20;;;;;;5072781;28;20115;-67
2023/08/22 07:29:17;;;;;;;756.95;684.70;;;34.10;96.50;;;;;;5072655;28;20359;-66
2023/08/22 07:31:44;;;;;;;924.22;833.85;;;34.10;96.10;;;;;;5072871;28;20029;-66
2023/08/22 07:34:10;;;;;;;776.08;702.35;;;34.10;95.90;;;;;;5074487;28;20056;-68
2023/08/22 07:36:37;;;;;;;574.58;517.47;;;34.10;96.00;;;;;;5093323;28;20044;-67
2023/08/22 07:39:04;;;;;;;732.60;662.50;;;34.00;95.30;;;;;;5096558;28;20392;-68
2023/08/22 07:41:30;;;;;;;647.72;584.65;;;34.00;95.20;;;;;;5096438;28;20028;-68
2023/08/22 07:43:57;;;;;;;615.97;555.55;;;33.90;94.90;;;;;;5096383;28;20027;-70
2023/08/22 07:46:23;;;;;;;551.80;496.25;;;33.80;95.30;;;;;;5096340;28;20473;-66
2023/08/22 07:48:50;;;;;;;604.35;544.63;;;33.90;95.70;;;;;;5096117;28;20031;-68
2023/08/22 07:51:16;;;;;;;560.72;504.90;;;34.00;95.60;;;;;;5096133;28;20092;-66
2023/08/22 07:53:43;;;;;;;567.55;511.40;;;34.00;95.80;;;;;;5096223;28;20492;-69
2023/08/22 07:56:09;;;;;;;558.78;503.00;;;33.90;95.70;;;;;;5096278;28;20020;-72
2023/08/22 07:58:36;;;;;;;653.38;589.08;;;33.80;94.30;;;;;;5096045;28;20012;-70
2023/08/22 08:01:04;;;;;;;1209.28;999.90;;;33.70;95.00;;;;;;5096026;28;20103;-69
2023/08/22 08:03:31;;;;;;;1270.40;999.90;;;33.60;95.20;;;;;;5096166;28;20028;-74
2023/08/22 08:05:58;;;;;;;1242.78;999.90;;;33.50;94.90;;;;;;5095954;28;20104;-71
2023/08/22 08:08:25;;;;;;;1325.05;999.90;;;33.50;95.30;;;;;;5095717;28;20560;-69
2023/08/22 08:10:51;;;;;;;1196.93;999.90;;;33.50;95.60;;;;;;5096070;28;20020;-72
2023/08/22 08:13:18;;;;;;;996.72;896.90;;;33.50;95.90;;;;;;5095823;28;20024;-69
2023/08/22 08:15:44;;;;;;;721.22;651.25;;;33.50;95.50;;;;;;5085480;28;20036;-69
2023/08/22 08:18:11;;;;;;;1347.65;999.90;;;33.60;95.90;;;;;;5093196;28;20052;-72
2023/08/22 08:20:38;;;;;;;1357.63;999.90;;;33.70;96.10;;;;;;5095824;28;20042;-71
2023/08/22 08:23:05;;;;;;;1385.43;999.90;;;33.70;96.20;;;;;;5095127;28;20558;-67
2023/08/22 08:25:31;;;;;;;1247.97;999.90;;;33.70;96.50;;;;;;5095593;28;20028;-66
2023/08/22 08:27:58;;;;;;;1393.93;999.90;;;33.70;95.80;;;;;;5095520;28;20023;-73
2023/08/22 08:30:25;;;;;;;1484.03;999.90;;;33.80;96.70;;;;;;5095690;28;20039;-73
2023/08/22 08:32:51;;;;;;;1347.50;999.90;;;33.70;95.90;;;;;;5095383;28;20024;-71
2023/08/22 08:35:18;;;;;;;1116.25;991.40;;;33.60;95.60;;;;;;5095347;28;20099;-71
2023/08/22 08:37:46;;;;;;;1208.78;999.90;;;33.50;95.50;;;;;;5095327;28;20047;-68
2023/08/22 08:40:14;;;;;;;1505.60;999.90;;;33.50;95.70;;;;;;5095147;28;20057;-69
2023/08/22 08:42:42;;;;;;;1471.97;999.90;;;33.50;95.50;;;;;;5094647;28;20432;-68
2023/08/22 08:45:08;;;;;;;1516.57;999.90;;;33.40;95.90;;;;;;5095016;28;20108;-67
2023/08/22 08:47:36;;;;;;;1552.18;999.90;;;33.40;96.00;;;;;;5094767;28;20022;-70
2023/08/22 08:50:06;;;;;;;1469.15;999.90;;;33.50;96.20;;;;;;5088065;28;20028;-68
2023/08/22 08:52:33;;;;;;;1224.35;999.90;;;33.50;96.30;;;;;;5084139;28;20035;-67
2023/08/22 08:55:00;;;;;;;1289.45;999.90;;;33.50;96.40;;;;;;5084189;28;20120;-71
2023/08/22 08:57:27;;;;;;;1160.45;999.90;;;33.50;96.80;;;;;;5074693;28;20021;-68
2023/08/22 08:59:54;;;;;;;1128.65;999.90;;;33.40;96.50;;;;;;5074986;28;20047;-68
2023/08/22 09:02:20;;;;;;;1137.53;999.90;;;33.30;96.60;;;;;;5074722;28;20465;-69
2023/08/22 09:04:49;;;;;;;1368.20;999.90;;;33.30;97.30;;;;;;5074572;28;20175;-70
2023/08/22 09:07:17;;;;;;;1374.28;999.90;;;33.20;97.80;;;;;;5074551;28;20021;-69
2023/08/22 09:09:44;;;;;;;1417.03;999.90;;;33.10;97.30;;;;;;5084056;28;20074;-69
2023/08/22 09:12:13;;;;;;;1403.10;999.90;;;33.00;97.30;;;;;;5089162;28;20106;-71
2023/08/22 09:14:44;;;;;;;1424.45;999.90;;;33.00;97.70;;;;;;5084265;28;20083;-70
2023/08/22 09:17:18;;;;;;;1154.53;999.90;;;32.90;97.70;;;;;;5094971;28;20050;-68
2023/08/22 09:19:48;;;;;;;1383.38;999.90;;;32.90;97.50;;;;;;5090829;28;20103;-69
2023/08/22 09:22:15;;;;;;;1336.80;999.90;;;32.90;97.30;;;;;;5082357;28;20063;-69
2023/08/22 09:24:51;;;;;;;1372.25;999.90;;;32.90;97.40;;;;;;5078232;28;20039;-69
2023/08/22 09:27:22;;;;;;;1368.97;999.90;;;32.90;97.30;;;;;;5083753;28;20067;-68
2023/08/22 09:29:48;;;;;;;1329.00;999.90;;;33.00;97.20;;;;;;5085347;28;20031;-67
2023/08/22 09:32:15;;;;;;;1373.45;999.90;;;33.00;97.20;;;;;;5089166;28;20035;-68
2023/08/22 09:34:55;;;;;;;1400.00;999.90;;;33.00;97.50;;;;;;5081573;28;20107;-68
2023/08/22 09:37:33;;;;;;;1533.25;999.90;;;33.00;97.80;;;;;;5085248;28;20154;-68
2023/08/22 09:40:03;;;;;;;1436.13;999.90;;;33.00;97.80;;;;;;5081543;28;20033;-68
2023/08/22 09:42:35;;;;;;;1385.05;999.90;;;32.90;97.90;;;;;;5074363;28;20099;-69
2023/08/22 09:45:03;;;;;;;1400.30;999.90;;;32.90;97.50;;;;;;5074301;28;20117;-70
2023/08/22 09:47:30;;;;;;;1361.05;999.90;;;32.90;97.10;;;;;;5082634;28;20055;-68
2023/08/22 09:50:02;;;;;;;1373.32;999.90;;;32.80;97.10;;;;;;5082365;28;20115;-68
2023/08/22 09:52:29;;;;;;;1558.80;999.90;;;32.80;97.80;;;;;;5081715;28;20029;-69
2023/08/22 09:54:56;;;;;;;1528.55;999.90;;;32.80;97.60;;;;;;5093573;28;20028;-66
2023/08/22 09:57:25;;;;;;;1646.28;999.90;;;32.80;98.00;;;;;;5084224;28;20431;-68
2023/08/22 09:59:52;;;;;;;1626.30;999.90;;;32.80;98.70;;;;;;5081063;28;20029;-69
2023/08/22 10:02:20;;;;;;;1412.38;999.90;;;32.70;99.10;;;;;;5077735;28;20103;-68
2023/08/22 10:04:47;;;;;;;1380.80;999.90;;;32.70;99.20;;;;;;5086845;28;20024;-69
2023/08/22 10:07:13;;;;;;;1391.10;999.90;;;32.70;98.80;;;;;;5082296;28;20472;-69
2023/08/22 10:09:42;;;;;;;1360.55;999.90;;;32.60;98.90;;;;;;5087866;28;20422;-70
2023/08/22 10:12:13;;;;;;;1363.55;999.90;;;32.50;99.30;;;;;;5083262;28;20040;-69
2023/08/22 10:14:56;;;;;;;1377.23;999.90;;;32.50;99.40;;;;;;5082050;28;20371;-69
2023/08/22 10:17:27;;;;;;;1365.88;999.90;;;32.50;99.30;;;;;;5082293;28;20245;-68
2023/08/22 10:20:04;;;;;;;1358.72;999.90;;;32.50;99.70;;;;;;5082350;28;20279;-70
2023/08/22 10:22:33;;;;;;;1270.70;999.90;;;32.40;99.90;;;;;;5083321;28;20195;-69
2023/08/22 10:25:05;;;;;;;1235.15;999.90;;;32.40;99.90;;;;;;5081675;28;20036;-69
2023/08/22 10:27:34;;;;;;;1187.28;999.90;;;32.40;99.90;;;;;;5082436;28;20153;-69
2023/08/22 10:30:21;;;;;;;1340.65;999.90;;;32.30;99.90;;;;;;5086479;28;20024;-69
2023/08/22 10:33:03;;;;;;;1327.20;999.90;;;32.30;99.90;;;;;;5083842;28;20223;-69
2023/08/22 10:35:30;;;;;;;1345.10;999.90;;;32.20;99.90;;;;;;5082801;28;20066;-69
2023/08/22 10:37:57;;;;;;;1343.03;999.90;;;32.20;99.90;;;;;;5063344;28;20404;-69
2023/08/22 10:40:25;;;;;;;1366.03;999.90;;;32.20;99.90;;;;;;5072971;28;20059;-70
2023/08/22 10:43:03;;;;;;;1446.65;999.90;;;32.20;99.90;;;;;;5072729;28;20021;-70
2023/08/22 10:45:50;;;;;;;1543.60;999.90;;;32.10;99.90;;;;;;5073076;28;20036;-70
2023/08/22 10:48:19;;;;;;;1547.38;999.90;;;32.10;99.90;;;;;;5073821;28;20025;-68
2023/08/22 10:50:49;;;;;;;1567.45;999.90;;;32.00;99.90;;;;;;5085709;28;20012;-69
2023/08/22 10:53:20;;;;;;;1456.85;999.90;;;32.00;99.90;;;;;;5086824;28;20021;-69
2023/08/22 10:55:48;;;;;;;1444.88;999.90;;;32.00;99.90;;;;;;5082407;28;20397;-69
2023/08/22 10:58:37;;;;;;;1423.18;999.90;;;32.00;99.90;;;;;;5083460;28;20031;-68
2023/08/22 11:01:11;;;;;;;1500.07;999.90;;;31.90;99.90;;;;;;5083505;28;20034;-66
2023/08/22 11:03:38;;;;;;;1422.30;999.90;;;31.90;99.90;;;;;;5086426;28;20131;-67
2023/08/22 11:06:18;;;;;;;1390.82;999.90;;;31.80;99.90;;;;;;5084562;28;20028;-67
2023/08/22 11:08:45;;;;;;;1388.68;999.90;;;31.80;99.90;;;;;;5085346;28;20025;-68
2023/08/22 11:11:14;;;;;;;1389.28;999.90;;;31.70;99.90;;;;;;5086047;28;20030;-69
2023/08/22 11:13:41;;;;;;;1355.15;999.90;;;31.70;99.90;;;;;;5089352;28;20028;-68
2023/08/22 11:16:14;;;;;;;1381.90;999.90;;;31.70;99.90;;;;;;5085514;28;20023;-69
2023/08/22 11:18:41;;;;;;;1352.43;999.90;;;31.70;99.90;;;;;;5085331;28;20016;-69
2023/08/22 11:21:08;;;;;;;1384.82;999.90;;;31.70;99.90;;;;;;5085407;28;20021;-70
2023/08/22 11:23:36;;;;;;;1374.22;999.90;;;31.60;99.90;;;;;;5086097;28;20012;-67
2023/08/22 11:26:06;;;;;;;1376.32;999.90;;;31.50;99.90;;;;;;5087072;28;20452;-70
2023/08/22 11:28:36;;;;;;;1376.43;999.90;;;31.40;99.90;;;;;;5086465;28;20061;-68
2023/08/22 11:31:06;;;;;;;1374.88;999.90;;;31.40;99.90;;;;;;5085299;28;20071;-72
2023/08/22 11:33:46;;;;;;;1367.40;999.90;;;31.50;99.90;;;;;;5086511;28;20029;-68
2023/08/22 11:36:13;;;;;;;1338.50;999.90;;;31.40;99.90;;;;;;5085677;28;20017;-72
2023/08/22 11:38:41;;;;;;;1271.03;999.90;;;31.40;99.90;;;;;;5090368;28;20032;-68
2023/08/22 11:41:09;;;;;;;1077.85;971.13;;;31.40;99.90;;;;;;5085886;28;20016;-70
2023/08/22 11:43:44;;;;;;;1027.05;925.97;;;31.40;99.90;;;;;;5086078;28;20492;-68
2023/08/22 11:46:10;;;;;;;962.83;868.33;;;31.30;99.90;;;;;;5085684;28;20028;-67
2023/08/22 11:48:37;;;;;;;972.78;876.70;;;31.20;99.90;;;;;;5090248;28;20016;-65
2023/08/22 11:51:03;;;;;;;970.28;875.03;;;31.20;99.90;;;;;;5091844;28;20138;-65
2023/08/22 11:53:30;;;;;;;928.60;836.75;;;31.10;99.90;;;;;;5088794;28;20020;-66
2023/08/22 11:55:57;;;;;;;909.88;821.13;;;31.10;99.90;;;;;;5084514;28;20016;-66
2023/08/22 11:58:24;;;;;;;909.58;819.78;;;31.10;99.90;;;;;;5088353;28;20460;-66
2023/08/22 12:00:55;;;;;;;937.15;845.55;;;31.10;99.90;;;;;;5088325;28;20070;-65
2023/08/22 12:03:21;;;;;;;950.47;857.17;;;31.00;99.90;;;;;;5087798;28;20087;-65
2023/08/22 12:05:48;;;;;;;940.35;847.53;;;31.00;99.90;;;;;;5092233;28;20469;-67
2023/08/22 12:08:15;;;;;;;982.45;885.58;;;31.00;99.90;;;;;;5078197;28;20021;-71
2023/08/22 12:10:43;;;;;;;1000.08;901.50;;;30.90;99.90;;;;;;5084999;28;20099;-70